Time;durP1;ratioP1;P1;durP2;ratioP2;P2;SDS_P1;SDS_P2;PMS_P1;PMS_P2;Temp;Humidity;BMP_temperature;BMP_pressure;BME280_temperature;BME280_humidity;BME280_pressure;Samples;Min_cycle;Max_cycle;Signal;HPM_P1;HPM_P2
2022/06/24 00:00:35;;;;;;;8.07;6.75;;;;;;;21.63;65.37;100827.88;4865930;28;121037;-82
2022/06/24 00:03:01;;;;;;;9.80;6.57;;;;;;;21.59;65.33;100821.81;4868502;28;120882;-82
2022/06/24 00:05:29;;;;;;;9.45;6.95;;;;;;;21.55;65.72;100808.16;4875919;28;123114;-82
2022/06/24 00:07:56;;;;;;;7.68;6.05;;;;;;;21.61;65.62;100820.00;4870290;28;121105;-82
2022/06/24 00:10:31;;;;;;;10.38;6.57;;;;;;;21.61;65.40;100811.63;4873386;28;120988;-82
2022/06/24 00:12:58;;;;;;;10.00;6.43;;;;;;;21.53;65.38;100801.56;4864945;28;120753;-82
2022/06/24 00:15:30;;;;;;;10.00;6.63;;;;;;;21.57;65.35;100800.00;4876598;28;121717;-82
2022/06/24 00:17:56;;;;;;;8.02;6.10;;;;;;;21.57;65.16;100810.44;4861283;28;120357;-82
2022/06/24 00:20:23;;;;;;;7.00;6.00;;;;;;;21.56;65.95;100817.28;4872291;28;120668;-82
2022/06/24 00:22:52;;;;;;;7.50;6.43;;;;;;;21.51;65.30;100804.13;4876157;28;120693;-82
2022/06/24 00:25:23;;;;;;;8.65;5.78;;;;;;;21.55;65.53;100813.00;4875740;28;123834;-82
2022/06/24 00:28:09;;;;;;;8.70;5.55;;;;;;;21.55;65.31;100794.22;4869549;28;120652;-82
2022/06/24 00:30:37;;;;;;;10.48;6.30;;;;;;;21.50;65.35;100788.66;4849409;28;122161;-82
2022/06/24 00:33:15;;;;;;;9.38;5.55;;;;;;;21.53;65.37;100795.97;4856266;28;120693;-82
2022/06/24 00:35:43;;;;;;;10.65;6.03;;;;;;;21.52;65.31;100786.09;4874718;28;122438;-82
2022/06/24 00:38:24;;;;;;;10.48;6.03;;;;;;;21.52;65.36;100789.66;4902808;23;121702;-80
2022/06/24 00:41:07;;;;;;;8.10;5.25;;;;;;;21.53;65.44;100790.41;4914318;28;120646;-80
2022/06/24 00:44:00;;;;;;;8.82;5.57;;;;;;;21.50;65.14;100783.09;4908820;28;120367;-81
2022/06/24 00:46:34;;;;;;;8.43;5.65;;;;;;;21.51;65.34;100781.81;4893527;28;121598;-81
2022/06/24 00:48:59;;;;;;;11.82;5.50;;;;;;;21.47;65.13;100786.94;4893991;28;120280;-81
2022/06/24 00:51:33;;;;;;;10.25;5.78;;;;;;;21.47;65.09;100775.75;4896095;28;119856;-81
2022/06/24 00:54:07;;;;;;;6.13;4.72;;;;;;;21.45;65.54;100785.41;4896630;28;121320;-81
2022/06/24 00:56:33;;;;;;;10.57;4.82;;;;;;;21.40;64.91;100777.09;4894172;28;120588;-82
2022/06/24 00:59:01;;;;;;;7.78;4.80;;;;;;;21.44;65.33;100772.75;4894591;28;120616;-80
2022/06/24 01:01:30;;;;;;;6.68;5.00;;;;;;;21.42;65.03;100768.97;4892879;28;120302;-81
2022/06/24 01:03:57;;;;;;;6.70;4.82;;;;;;;21.41;64.99;100773.78;4894658;28;120489;-80
2022/06/24 01:06:27;;;;;;;8.30;4.32;;;;;;;21.40;64.98;100768.75;4894683;28;120603;-81
2022/06/24 01:08:54;;;;;;;7.18;3.90;;;;;;;21.37;65.10;100767.75;4877855;28;120349;-80
2022/06/24 01:11:46;;;;;;;6.55;3.95;;;;;;;21.39;64.95;100773.56;4895197;28;120325;-80
2022/06/24 01:14:12;;;;;;;10.30;4.00;;;;;;;21.31;64.68;100764.28;4891658;28;119851;-80
2022/06/24 01:16:41;;;;;;;6.30;4.00;;;;;;;21.36;64.64;100766.25;4898764;28;120169;-81
2022/06/24 01:19:12;;;;;;;6.32;4.25;;;;;;;21.33;64.89;100766.53;4876406;28;124224;-81
2022/06/24 01:21:40;;;;;;;6.18;3.92;;;;;;;21.34;64.83;100754.84;4895395;28;119909;-82
2022/06/24 01:24:07;;;;;;;6.50;3.78;;;;;;;21.34;64.74;100762.47;4893424;28;122083;-81
2022/06/24 01:26:57;;;;;;;6.03;3.17;;;;;;;21.33;64.43;100758.16;4886591;28;120124;-81
2022/06/24 01:29:23;;;;;;;5.90;3.60;;;;;;;21.31;64.50;100757.94;4894150;28;120133;-80
2022/06/24 01:31:52;;;;;;;6.05;3.40;;;;;;;21.30;64.72;100765.56;4893970;28;119861;-79
2022/06/24 01:34:19;;;;;;;5.78;3.00;;;;;;;21.29;64.31;100760.47;4892869;28;121214;-82
2022/06/24 01:36:45;;;;;;;6.10;3.13;;;;;;;21.28;64.00;100753.38;4894079;28;120021;-80
2022/06/24 01:39:11;;;;;;;8.35;3.35;;;;;;;21.26;64.22;100742.75;4896510;28;120258;-80
2022/06/24 01:41:38;;;;;;;6.43;3.10;;;;;;;21.23;63.83;100749.34;4877802;28;119974;-80
2022/06/24 01:44:04;;;;;;;5.65;3.10;;;;;;;21.21;63.90;100746.31;4893236;28;120132;-80
2022/06/24 01:46:30;;;;;;;4.93;3.03;;;;;;;21.16;64.17;100741.56;4893655;28;120025;-79
2022/06/24 01:48:55;;;;;;;5.78;3.17;;;;;;;21.18;63.98;100747.38;4893783;28;120324;-81
2022/06/24 01:51:23;;;;;;;7.68;3.20;;;;;;;21.17;63.74;100745.13;4894587;28;119773;-81
2022/06/24 01:53:52;;;;;;;6.78;3.22;;;;;;;21.13;64.22;100737.03;4893386;28;119750;-81
2022/06/24 01:56:19;;;;;;;6.60;3.00;;;;;;;21.16;63.74;100736.00;4894641;28;119870;-81
2022/06/24 01:58:45;;;;;;;6.32;2.90;;;;;;;21.16;63.94;100736.00;4892906;28;120310;-80
2022/06/24 02:01:11;;;;;;;4.93;2.80;;;;;;;21.13;63.90;100731.47;4896245;28;120055;-81
2022/06/24 02:03:39;;;;;;;7.63;2.72;;;;;;;21.15;63.58;100735.25;4909501;28;120284;-81
2022/06/24 02:06:09;;;;;;;5.82;2.92;;;;;;;21.14;63.97;100733.72;4911338;28;121384;-81
2022/06/24 02:08:35;;;;;;;6.97;3.00;;;;;;;21.10;63.81;100727.69;4897735;28;120294;-81
2022/06/24 02:13:49;;;;;;;3.78;2.67;;;;;;;21.05;63.46;100702.63;4892463;28;120475;-81
2022/06/24 02:16:18;;;;;;;5.75;3.10;;;;;;;21.07;63.78;100711.25;4893141;28;120776;-80
2022/06/24 02:18:44;;;;;;;8.70;3.05;;;;;;;21.05;63.58;100699.84;4894383;28;119752;-81
2022/06/24 02:21:30;;;;;;;6.47;3.33;;;;;;;20.99;63.65;100688.75;4894266;28;121072;-81
2022/06/24 02:23:56;;;;;;;5.55;2.85;;;;;;;21.03;63.31;100703.16;4896421;28;120757;-80
2022/06/24 02:26:45;;;;;;;4.85;2.97;;;;;;;20.95;63.53;100685.50;4870725;28;120395;-80
2022/06/24 02:29:12;;;;;;;7.40;2.67;;;;;;;20.97;63.50;100693.34;4875210;28;119908;-80
2022/06/24 02:31:39;;;;;;;6.28;2.63;;;;;;;20.99;63.14;100688.00;4893810;28;120160;-80
2022/06/24 02:34:22;;;;;;;6.63;2.80;;;;;;;20.97;63.13;100696.13;4892403;28;120954;-81
2022/06/24 02:36:47;;;;;;;6.93;2.70;;;;;;;20.95;63.25;100690.31;4894200;28;119996;-79
2022/06/24 02:39:13;;;;;;;4.32;2.75;;;;;;;20.92;63.33;100677.44;4895140;28;120015;-80
2022/06/24 02:41:39;;;;;;;5.13;2.75;;;;;;;20.95;63.16;100690.31;4892393;28;121275;-81
2022/06/24 02:44:04;;;;;;;3.80;2.45;;;;;;;20.86;63.09;100668.38;4898491;28;119727;-80
2022/06/24 02:46:30;;;;;;;8.35;2.83;;;;;;;20.88;63.03;100674.94;4896310;28;123169;-80
2022/06/24 02:48:58;;;;;;;9.30;2.80;;;;;;;20.84;63.00;100668.91;4897717;28;120100;-80
2022/06/24 02:51:24;;;;;;;4.18;2.17;;;;;;;20.89;62.81;100670.13;4896646;28;119578;-80
2022/06/24 02:53:50;;;;;;;5.32;2.45;;;;;;;20.85;62.79;100670.41;4894595;28;120339;-80
2022/06/24 02:56:19;;;;;;;6.25;2.55;;;;;;;20.88;62.61;100674.94;4895835;28;119737;-80
2022/06/24 02:58:45;;;;;;;4.78;2.28;;;;;;;20.81;62.79;100662.31;4895827;28;120234;-80
2022/06/24 03:01:11;;;;;;;7.38;2.83;;;;;;;20.84;62.79;100661.28;4895196;28;120253;-81
2022/06/24 03:03:36;;;;;;;6.90;2.50;;;;;;;20.87;62.50;100661.53;4894597;28;119863;-81
2022/06/24 03:06:07;;;;;;;9.48;2.47;;;;;;;20.84;62.42;100652.94;4899901;28;119587;-81
2022/06/24 03:08:33;;;;;;;3.92;2.53;;;;;;;20.86;62.55;100657.22;4896732;28;120096;-81
2022/06/24 03:11:07;;;;;;;8.48;2.72;;;;;;;20.82;62.52;100655.47;4897489;28;119767;-80
2022/06/24 03:13:32;;;;;;;5.78;1.90;;;;;;;20.80;62.57;100648.91;4895300;28;121302;-82
2022/06/24 03:16:03;;;;;;;6.95;2.40;;;;;;;20.76;62.42;100640.81;4896392;28;119597;-81
2022/06/24 03:18:29;;;;;;;6.25;2.35;;;;;;;20.81;62.24;100648.38;4895865;28;120315;-80
2022/06/24 03:21:15;;;;;;;3.55;2.30;;;;;;;20.86;62.50;100654.44;4888968;28;121726;-80
2022/06/24 03:23:41;;;;;;;4.93;2.40;;;;;;;20.81;61.96;100639.25;4895759;28;119735;-81
2022/06/24 03:26:06;;;;;;;5.57;1.98;;;;;;;20.85;62.36;100642.53;4895921;28;120330;-81
2022/06/24 03:28:32;;;;;;;7.57;2.10;;;;;;;20.84;62.33;100639.00;4899107;28;122729;-80
2022/06/24 03:31:00;;;;;;;9.77;2.60;;;;;;;20.84;62.00;100639.00;4896805;28;120062;-80
2022/06/24 03:33:26;;;;;;;6.10;2.47;;;;;;;20.85;62.27;100645.31;4895577;28;119692;-80
2022/06/24 03:35:52;;;;;;;4.03;2.53;;;;;;;20.87;62.27;100639.97;4895637;28;119626;-81
2022/06/24 03:38:17;;;;;;;8.18;2.22;;;;;;;20.87;62.26;100642.00;4896553;28;119592;-81
2022/06/24 03:40:46;;;;;;;10.07;2.50;;;;;;;20.84;62.39;100633.41;4911176;28;122360;-81
2022/06/24 03:43:12;;;;;;;7.72;2.20;;;;;;;20.84;62.12;100633.41;4896870;28;120214;-82
2022/06/24 03:45:38;;;;;;;3.47;2.20;;;;;;;20.91;62.41;100639.69;4895467;28;119893;-80
2022/06/24 03:48:04;;;;;;;10.15;2.60;;;;;;;20.88;62.09;100626.78;4896006;28;120237;-80
2022/06/24 03:50:32;;;;;;;4.85;2.20;;;;;;;20.93;62.46;100632.28;4897726;28;119586;-81
2022/06/24 03:52:58;;;;;;;4.53;2.08;;;;;;;20.93;62.05;100629.50;4894004;28;119584;-80
2022/06/24 03:55:24;;;;;;;7.53;2.22;;;;;;;20.96;62.39;100627.69;4893706;28;119700;-80
2022/06/24 03:57:51;;;;;;;6.93;2.42;;;;;;;21.01;61.92;100626.88;4909569;28;120020;-80
2022/06/24 04:00:20;;;;;;;4.75;2.17;;;;;;;21.08;61.68;100629.84;4893359;28;121029;-79
2022/06/24 04:02:45;;;;;;;3.92;2.03;;;;;;;21.13;61.94;100614.31;4894265;28;119726;-80
2022/06/24 04:05:35;;;;;;;4.95;2.13;;;;;;;21.23;61.99;100620.28;4866087;28;120165;-82
2022/06/24 04:08:01;;;;;;;10.43;2.25;;;;;;;21.24;61.81;100605.84;4896057;28;120738;-80
2022/06/24 04:10:29;;;;;;;5.88;2.10;;;;;;;21.28;62.01;100605.53;4894882;28;119885;-80
2022/06/24 04:12:55;;;;;;;9.32;2.35;;;;;;;21.36;61.68;100615.59;4899416;28;119793;-80
2022/06/24 04:15:21;;;;;;;4.40;2.35;;;;;;;21.36;61.86;100601.63;4896036;28;120024;-80
2022/06/24 04:17:48;;;;;;;5.50;2.00;;;;;;;21.47;61.48;100608.34;4896568;28;120509;-81
2022/06/24 04:20:17;;;;;;;5.25;1.75;;;;;;;21.51;61.64;100608.78;4894361;28;119849;-79
2022/06/24 04:22:43;;;;;;;4.28;1.98;;;;;;;21.53;61.95;100606.22;4894930;28;120395;-81
2022/06/24 04:25:10;;;;;;;5.47;2.10;;;;;;;21.56;61.80;100596.81;4894700;28;120206;-80
2022/06/24 04:27:37;;;;;;;4.35;2.25;;;;;;;21.58;61.46;100591.44;4895325;28;120364;-81
2022/06/24 04:30:05;;;;;;;8.63;2.40;;;;;;;21.59;61.99;100598.53;4895711;28;119856;-81
2022/06/24 04:32:31;;;;;;;8.18;2.60;;;;;;;21.62;61.81;100594.69;4897020;28;120536;-80
2022/06/24 04:34:57;;;;;;;4.68;2.40;;;;;;;21.60;61.55;100586.84;4894289;28;120314;-80
2022/06/24 04:37:23;;;;;;;7.57;2.35;;;;;;;21.64;61.34;100581.69;4894165;28;120503;-81
2022/06/24 04:39:49;;;;;;;4.22;2.17;;;;;;;21.61;61.83;100577.19;4895500;28;120845;-80
2022/06/24 04:42:15;;;;;;;8.48;2.60;;;;;;;21.63;61.43;100579.44;4894284;28;120476;-80
2022/06/24 04:44:41;;;;;;;7.40;2.60;;;;;;;21.67;61.76;100588.25;4895526;28;120403;-81
2022/06/24 04:47:09;;;;;;;4.65;2.28;;;;;;;21.64;62.09;100578.91;4894026;28;120188;-81
2022/06/24 04:49:36;;;;;;;6.53;2.90;;;;;;;21.67;62.09;100577.09;4895228;28;120274;-80
2022/06/24 04:52:02;;;;;;;6.03;2.70;;;;;;;21.73;62.17;100584.09;4895669;28;120032;-80
2022/06/24 04:54:27;;;;;;;6.88;3.00;;;;;;;21.70;61.88;100571.19;4912927;28;120770;-80
2022/06/24 04:56:53;;;;;;;7.55;3.05;;;;;;;21.72;62.11;100579.03;4878106;28;120524;-81
2022/06/24 04:59:19;;;;;;;6.18;3.17;;;;;;;21.75;61.93;100567.56;4909491;28;120442;-81
2022/06/24 05:01:44;;;;;;;7.95;2.75;;;;;;;21.79;62.30;100577.69;4893732;28;120623;-80
2022/06/24 05:04:10;;;;;;;6.95;2.92;;;;;;;21.83;62.35;100576.09;4894284;28;119534;-81
2022/06/24 05:06:36;;;;;;;4.85;3.20;;;;;;;21.85;62.11;100565.16;4894604;28;121212;-81
2022/06/24 05:09:04;;;;;;;6.18;3.15;;;;;;;21.89;62.40;100570.41;4894061;28;120925;-79
2022/06/24 05:11:48;;;;;;;6.43;3.35;;;;;;;21.91;62.01;100560.22;4894676;28;121782;-80
2022/06/24 05:14:17;;;;;;;4.32;3.08;;;;;;;21.93;61.93;100554.84;4892962;28;121909;-81
2022/06/24 05:17:15;;;;;;;8.68;3.80;;;;;;;21.96;62.16;100556.56;4838583;29;120682;-81
2022/06/24 05:19:41;;;;;;;5.82;3.40;;;;;;;21.98;62.38;100540.03;4826203;28;121078;-80
2022/06/24 05:22:09;;;;;;;9.07;3.53;;;;;;;22.04;62.01;100549.13;4909435;28;120551;-79
2022/06/24 05:24:34;;;;;;;5.60;3.10;;;;;;;22.05;62.67;100542.25;4894480;28;120419;-82
2022/06/24 05:27:00;;;;;;;7.97;3.47;;;;;;;22.11;62.51;100547.72;4894045;28;121099;-81
2022/06/24 05:29:26;;;;;;;8.48;3.83;;;;;;;22.12;62.32;100531.72;4893006;28;121031;-82
2022/06/24 05:31:52;;;;;;;4.57;3.30;;;;;;;22.17;62.40;100539.25;4891821;28;121087;-82
2022/06/24 05:34:17;;;;;;;6.65;3.45;;;;;;;22.23;62.05;100529.47;4891919;28;122649;-81
2022/06/24 05:36:43;;;;;;;4.38;3.63;;;;;;;22.24;61.88;100531.00;4908707;28;121475;-81
2022/06/24 05:39:09;;;;;;;6.18;3.28;;;;;;;22.28;61.79;100523.06;4897448;28;121297;-81
2022/06/24 05:41:38;;;;;;;4.68;3.20;;;;;;;22.33;61.44;100515.84;4894186;28;121706;-81
2022/06/24 05:44:05;;;;;;;9.18;3.50;;;;;;;22.42;61.78;100526.59;4892136;28;123024;-81
2022/06/24 05:46:30;;;;;;;5.15;3.20;;;;;;;22.40;61.46;100511.66;4891306;28;122934;-79
2022/06/24 05:48:57;;;;;;;5.97;3.60;;;;;;;22.49;61.13;100516.84;4891475;28;121481;-80
2022/06/24 05:51:23;;;;;;;6.68;3.40;;;;;;;22.51;61.22;100512.22;4891795;28;121581;-80
2022/06/24 05:56:34;;;;;;;7.65;3.92;;;;;;;22.60;61.05;100497.78;4906739;28;121914;-81
2022/06/24 05:59:00;;;;;;;6.28;3.72;;;;;;;22.63;61.48;100496.69;4891637;28;121180;-79
2022/06/24 06:01:27;;;;;;;7.13;3.60;;;;;;;22.74;60.94;100500.59;4895054;28;121724;-80
2022/06/24 06:03:53;;;;;;;6.65;3.50;;;;;;;22.73;60.83;100483.06;4891882;28;121294;-80
2022/06/24 06:06:19;;;;;;;6.55;3.70;;;;;;;22.84;60.48;100491.22;4892112;28;122036;-80
2022/06/24 06:08:45;;;;;;;6.97;3.85;;;;;;;22.84;60.91;100488.44;4890881;28;122444;-81
2022/06/24 06:11:19;;;;;;;5.90;3.55;;;;;;;22.92;60.24;100483.66;4891339;28;121551;-81
2022/06/24 06:13:47;;;;;;;6.25;3.70;;;;;;;22.98;60.40;100472.38;4892116;28;121633;-81
2022/06/24 06:16:16;;;;;;;7.80;3.60;;;;;;;23.00;60.62;100474.63;4892564;28;121535;-81
2022/06/24 06:18:43;;;;;;;10.82;3.90;;;;;;;23.01;60.17;100471.28;4892739;28;122146;-81
2022/06/24 06:21:12;;;;;;;7.68;3.40;;;;;;;23.08;60.10;100476.22;4890326;28;122428;-80
2022/06/24 06:23:40;;;;;;;6.28;3.60;;;;;;;23.16;60.13;100481.88;4896510;28;121872;-81
2022/06/24 06:26:08;;;;;;;8.85;3.83;;;;;;;23.12;60.64;100465.44;4890286;28;121639;-81
2022/06/24 06:28:34;;;;;;;5.80;3.40;;;;;;;23.21;60.69;100473.38;4891034;28;121605;-81
2022/06/24 06:31:03;;;;;;;4.40;3.28;;;;;;;23.25;60.59;100471.00;4892002;28;122115;-79
2022/06/24 06:33:32;;;;;;;6.25;3.60;;;;;;;23.29;60.44;100476.25;4891295;28;121611;-80
2022/06/24 06:36:02;;;;;;;8.43;3.50;;;;;;;23.31;60.98;100479.25;4892643;28;121796;-81
2022/06/24 06:38:28;;;;;;;7.93;3.63;;;;;;;23.25;60.19;100459.81;4891915;28;121699;-79
2022/06/24 06:40:54;;;;;;;5.20;3.45;;;;;;;23.40;59.71;100469.63;4892111;28;122188;-81
2022/06/24 06:43:20;;;;;;;8.50;3.80;;;;;;;23.42;59.89;100462.22;4896271;28;122036;-80
2022/06/24 06:45:46;;;;;;;7.00;3.55;;;;;;;23.43;60.66;100460.16;4890212;28;124198;-81
2022/06/24 06:48:12;;;;;;;7.68;3.70;;;;;;;23.46;60.47;100447.88;4890737;28;121909;-80
2022/06/24 06:50:37;;;;;;;7.90;3.40;;;;;;;23.48;60.25;100453.66;4892280;28;121899;-80
2022/06/24 06:53:03;;;;;;;6.18;3.65;;;;;;;23.45;60.06;100449.16;4891108;28;121949;-82
2022/06/24 06:55:29;;;;;;;7.40;3.58;;;;;;;23.51;60.72;100446.97;4891751;28;121765;-81
2022/06/24 06:57:55;;;;;;;7.18;3.75;;;;;;;23.52;59.92;100448.47;4890825;28;121720;-79
2022/06/24 07:00:21;;;;;;;6.45;3.47;;;;;;;23.51;60.10;100438.56;4891526;28;121654;-79
2022/06/24 07:02:47;;;;;;;8.90;3.80;;;;;;;23.55;60.56;100444.59;4890709;28;122392;-81
2022/06/24 07:05:13;;;;;;;7.78;3.55;;;;;;;23.56;60.31;100440.50;4895412;28;121607;-80
2022/06/24 07:07:38;;;;;;;9.05;4.28;;;;;;;23.59;60.32;100442.22;4891619;28;122096;-81
2022/06/24 07:10:04;;;;;;;9.45;3.88;;;;;;;23.62;60.45;100435.50;4906870;28;125207;-82
2022/06/24 07:12:30;;;;;;;8.18;3.95;;;;;;;23.64;60.58;100438.50;4889796;28;122208;-81
2022/06/24 07:14:56;;;;;;;6.85;3.78;;;;;;;23.66;60.18;100435.16;4890383;28;121705;-81
2022/06/24 07:17:22;;;;;;;7.75;4.10;;;;;;;23.67;60.86;100425.50;4908128;23;122426;-79
2022/06/24 07:19:47;;;;;;;9.63;4.20;;;;;;;23.65;60.74;100420.41;4880249;28;124932;-79
2022/06/24 07:22:33;;;;;;;6.55;4.30;;;;;;;23.65;60.54;100416.88;4870369;28;123414;-79
2022/06/24 07:24:59;;;;;;;8.93;4.07;;;;;;;23.64;61.04;100416.13;4868798;28;124378;-79
2022/06/24 07:27:25;;;;;;;8.63;4.32;;;;;;;23.67;60.52;100409.44;4856375;28;125718;-79
2022/06/24 07:29:50;;;;;;;9.80;4.50;;;;;;;23.67;60.83;100415.03;4886949;28;124304;-79
2022/06/24 07:32:16;;;;;;;8.68;4.53;;;;;;;23.69;60.48;100392.84;4871037;28;122471;-79
2022/06/24 07:34:42;;;;;;;8.60;4.72;;;;;;;23.76;60.52;100397.75;4872647;28;122689;-79
2022/06/24 07:37:23;;;;;;;6.85;4.43;;;;;;;23.79;60.40;100395.88;4873851;28;123897;-79
2022/06/24 07:39:48;;;;;;;10.60;5.10;;;;;;;23.72;60.58;100374.94;4890063;28;122309;-80
2022/06/24 07:42:14;;;;;;;7.50;4.28;;;;;;;23.86;60.65;100381.19;4870107;28;122685;-79
2022/06/24 07:44:42;;;;;;;9.05;4.75;;;;;;;23.93;60.41;100379.75;4889562;28;124523;-79
2022/06/24 07:47:09;;;;;;;5.72;4.20;;;;;;;24.00;59.54;100367.81;4888652;28;122285;-79
2022/06/24 07:49:35;;;;;;;6.45;4.07;;;;;;;24.06;59.63;100349.53;4887504;28;122888;-79
2022/06/24 07:52:00;;;;;;;7.70;4.25;;;;;;;24.17;59.75;100345.69;4871731;28;125971;-80
2022/06/24 07:54:28;;;;;;;7.50;4.25;;;;;;;24.25;59.31;100349.25;4888016;28;122915;-80
2022/06/24 07:57:00;;;;;;;6.97;4.20;;;;;;;24.37;59.14;100332.88;4886183;28;123546;-80
2022/06/24 07:59:32;;;;;;;6.95;4.28;;;;;;;24.50;59.68;100335.56;4890283;28;122874;-80
2022/06/24 08:01:59;;;;;;;7.03;4.22;;;;;;;24.60;58.73;100342.09;4887329;28;122355;-80
2022/06/24 08:04:27;;;;;;;11.32;4.57;;;;;;;24.71;59.09;100336.16;4888565;28;124510;-80
2022/06/24 08:06:54;;;;;;;5.63;4.43;;;;;;;24.80;58.97;100335.63;4887991;28;125297;-80
2022/06/24 08:09:25;;;;;;;10.93;4.70;;;;;;;24.93;59.25;100336.75;4889072;28;122774;-80
2022/06/24 08:11:52;;;;;;;6.95;4.43;;;;;;;25.03;59.41;100341.28;4875235;28;123278;-80
2022/06/24 08:14:18;;;;;;;8.52;4.93;;;;;;;25.07;58.92;100336.03;4872811;28;122211;-80
2022/06/24 08:16:44;;;;;;;5.95;4.32;;;;;;;25.16;58.58;100331.19;4888862;28;122316;-78
2022/06/24 08:19:10;;;;;;;7.70;4.57;;;;;;;25.23;58.57;100339.59;4879786;28;125074;-78
2022/06/24 08:21:36;;;;;;;8.00;4.85;;;;;;;25.25;58.37;100328.56;4887156;28;122648;-79
2022/06/24 08:24:03;;;;;;;7.40;4.10;;;;;;;25.36;58.80;100333.06;4871143;28;124697;-78
2022/06/24 08:26:29;;;;;;;7.60;4.38;;;;;;;25.43;58.63;100332.31;4853919;28;125534;-78
2022/06/24 08:28:56;;;;;;;7.40;4.10;;;;;;;25.52;58.44;100337.34;4870457;28;122942;-78
2022/06/24 08:31:22;;;;;;;8.35;4.72;;;;;;;25.54;58.26;100331.16;4885259;28;122761;-78
2022/06/24 08:33:48;;;;;;;7.55;4.80;;;;;;;25.64;58.17;100332.84;4889789;28;125273;-78
2022/06/24 08:36:14;;;;;;;9.02;4.80;;;;;;;25.74;58.42;100332.28;4886399;28;124244;-77
2022/06/24 08:38:40;;;;;;;12.23;5.20;;;;;;;25.82;58.21;100333.03;4853304;28;125967;-78
2022/06/24 08:41:05;;;;;;;10.70;5.13;;;;;;;25.91;58.38;100332.44;4870574;28;122975;-78
2022/06/24 08:43:35;;;;;;;7.18;4.80;;;;;;;25.93;56.71;100321.38;4901424;28;124658;-79
2022/06/24 08:46:02;;;;;;;8.15;5.05;;;;;;;26.02;57.70;100329.19;4866556;28;125386;-79
2022/06/24 08:48:31;;;;;;;9.68;5.07;;;;;;;26.06;57.56;100332.38;4852209;28;123664;-78
2022/06/24 08:50:57;;;;;;;8.23;4.80;;;;;;;26.12;57.92;100320.94;4863088;28;124359;-78
2022/06/24 08:53:26;;;;;;;8.73;5.10;;;;;;;26.19;58.13;100325.75;4870365;28;126228;-78
2022/06/24 08:55:52;;;;;;;9.25;4.70;;;;;;;26.22;57.83;100313.38;4899764;28;124329;-79
2022/06/24 08:58:19;;;;;;;8.68;4.90;;;;;;;26.26;57.42;100306.06;4883482;28;123348;-79
2022/06/24 09:00:45;;;;;;;12.32;5.38;;;;;;;26.33;57.49;100306.59;4883890;28;122706;-79
2022/06/24 09:03:11;;;;;;;14.95;5.35;;;;;;;26.38;57.25;100309.22;4885059;28;122939;-79
2022/06/24 09:05:37;;;;;;;7.90;5.10;;;;;;;26.39;56.41;100299.47;4861733;28;123891;-79
2022/06/24 09:08:08;;;;;;;8.70;4.85;;;;;;;26.39;55.70;100298.72;4866819;28;123140;-79
2022/06/24 09:10:36;;;;;;;8.50;4.97;;;;;;;26.39;56.36;100299.47;4860799;28;124627;-78
2022/06/24 09:13:03;;;;;;;12.07;5.18;;;;;;;26.39;55.76;100287.47;4867853;28;124513;-78
2022/06/24 09:15:28;;;;;;;10.38;5.05;;;;;;;26.40;55.94;100289.69;4888017;28;122169;-79
2022/06/24 09:17:55;;;;;;;9.68;5.30;;;;;;;26.46;56.69;100281.03;4865882;28;124636;-78
2022/06/24 09:20:24;;;;;;;10.90;5.20;;;;;;;26.50;57.39;100281.38;4885509;28;123441;-79
2022/06/24 09:23:02;;;;;;;9.45;5.47;;;;;;;26.51;57.22;100280.09;4868327;28;124301;-79
2022/06/24 09:25:40;;;;;;;9.70;5.55;;;;;;;26.53;56.76;100283.06;4883165;28;122994;-79
2022/06/24 09:28:06;;;;;;;7.93;5.25;;;;;;;26.51;56.83;100272.41;4868645;28;122516;-79
2022/06/24 09:30:37;;;;;;;9.35;5.38;;;;;;;26.53;56.26;100261.31;4895888;28;125016;-79
2022/06/24 09:33:02;;;;;;;10.77;6.20;;;;;;;26.50;55.61;100264.50;4851849;28;125444;-79
2022/06/24 09:35:28;;;;;;;9.18;5.78;;;;;;;26.55;55.89;100267.13;4884848;28;122785;-79
2022/06/24 09:37:56;;;;;;;7.25;5.40;;;;;;;26.60;56.57;100262.59;4872575;28;124319;-78
2022/06/24 09:40:31;;;;;;;8.75;5.55;;;;;;;26.63;56.33;100271.94;4884372;28;122302;-77
2022/06/24 09:43:06;;;;;;;12.30;6.10;;;;;;;26.57;56.06;100247.59;4870004;28;124875;-78
2022/06/24 09:45:53;;;;;;;13.02;6.38;;;;;;;26.65;57.57;100267.22;4883093;28;125198;-77
2022/06/24 09:48:29;;;;;;;8.85;5.35;;;;;;;26.68;57.17;100265.34;4881448;28;123535;-77
2022/06/24 09:51:07;;;;;;;10.10;5.72;;;;;;;26.71;57.53;100261.38;4885445;28;124982;-77
2022/06/24 09:53:39;;;;;;;11.10;6.38;;;;;;;26.70;56.42;100257.81;4868280;28;125316;-78
2022/06/24 09:56:07;;;;;;;10.93;5.57;;;;;;;26.69;56.75;100253.50;4898944;28;122415;-78
2022/06/24 10:00:40;;;;;;;7.93;5.38;;;;;;;26.75;57.47;100254.03;4852916;28;124725;-78
2022/06/24 10:01:34;;;;;;;8.38;5.93;;;;;;;26.77;57.91;100254.22;4872582;28;125896;-78
2022/06/24 10:04:02;;;;;;;8.07;5.55;;;;;;;26.79;57.76;100250.81;4879894;28;124903;-78
2022/06/24 10:06:31;;;;;;;10.30;5.70;;;;;;;26.80;57.28;100236.19;4897380;28;122497;-78
2022/06/24 10:09:01;;;;;;;9.48;6.20;;;;;;;26.80;57.51;100241.81;4885044;28;122609;-78
2022/06/24 10:11:27;;;;;;;12.48;6.18;;;;;;;26.79;56.64;100245.94;4883140;28;124613;-78
2022/06/24 10:13:54;;;;;;;10.68;6.13;;;;;;;26.81;57.14;100240.47;4879530;28;126415;-78
2022/06/24 10:16:23;;;;;;;11.55;6.40;;;;;;;26.78;57.08;100236.00;4881893;28;122946;-78
2022/06/24 10:18:50;;;;;;;10.57;6.32;;;;;;;26.83;57.30;100245.53;4866876;28;123981;-79
2022/06/24 10:21:17;;;;;;;13.90;6.78;;;;;;;26.84;57.57;100244.97;4899649;28;125927;-80
2022/06/24 10:23:48;;;;;;;11.48;6.43;;;;;;;26.84;57.44;100242.13;4903432;28;122444;-80
2022/06/24 10:26:16;;;;;;;11.00;6.18;;;;;;;26.85;57.11;100249.25;4897343;28;122916;-79
2022/06/24 10:29:00;;;;;;;9.07;5.90;;;;;;;26.86;57.48;100244.38;4885343;28;123833;-80
2022/06/24 10:31:53;;;;;;;9.85;6.35;;;;;;;26.87;57.97;100245.88;4868482;28;122267;-79
2022/06/24 10:34:22;;;;;;;10.95;6.78;;;;;;;26.88;58.61;100256.53;4874884;28;124193;-79
2022/06/24 10:36:57;;;;;;;14.48;7.20;;;;;;;26.87;57.72;100255.06;4882455;28;122388;-80
2022/06/24 10:39:25;;;;;;;12.77;6.40;;;;;;;26.87;58.11;100257.88;4898655;28;125149;-80
2022/06/24 10:42:06;;;;;;;11.88;6.65;;;;;;;26.85;57.54;100248.50;4882383;28;125627;-80
2022/06/24 10:44:32;;;;;;;12.32;6.78;;;;;;;26.85;58.27;100238.00;4884278;28;124034;-80
2022/06/24 10:47:08;;;;;;;12.45;7.45;;;;;;;26.87;57.22;100245.88;4887223;28;124185;-80
2022/06/24 10:49:52;;;;;;;11.45;7.28;;;;;;;26.84;57.02;100235.78;4884841;28;123461;-80
2022/06/24 10:52:47;;;;;;;11.90;6.90;;;;;;;26.83;57.41;100251.16;4867532;28;122369;-79
2022/06/24 10:55:28;;;;;;;11.85;7.32;;;;;;;26.82;57.06;100255.28;4881325;28;125904;-80
2022/06/24 10:57:57;;;;;;;10.40;7.03;;;;;;;26.81;57.22;100248.91;4866770;28;122776;-80
2022/06/24 11:00:51;;;;;;;12.27;7.90;;;;;;;26.80;56.96;100244.63;4851661;28;125119;-80
2022/06/24 11:03:27;;;;;;;;;;;;;;;26.78;57.22;100250.06;4862858;28;123178;-79
2022/06/24 11:05:53;;;;;;;10.35;7.45;;;;;;;26.77;57.17;100242.97;4899249;28;124216;-80
2022/06/24 11:08:21;;;;;;;11.07;6.78;;;;;;;26.77;57.65;100242.22;4888500;28;122803;-78
2022/06/24 11:10:48;;;;;;;9.35;6.82;;;;;;;26.76;58.19;100244.28;4886660;28;122345;-78
2022/06/24 11:13:15;;;;;;;12.68;7.68;;;;;;;26.83;57.87;100253.97;4900125;28;122573;-80
2022/06/24 11:15:45;;;;;;;12.35;7.18;;;;;;;26.83;57.68;100256.78;4885955;28;122636;-78
2022/06/24 11:18:24;;;;;;;9.82;6.75;;;;;;;26.82;58.79;100250.41;4869551;28;122525;-78
2022/06/24 11:21:01;;;;;;;14.20;7.25;;;;;;;26.84;58.60;100244.97;4883912;28;124703;-79
2022/06/24 11:23:32;;;;;;;11.77;7.38;;;;;;;26.85;57.94;100252.06;4900731;28;123086;-79
2022/06/24 11:26:13;;;;;;;10.15;6.35;;;;;;;26.86;57.34;100245.13;4870431;28;122522;-79
2022/06/24 11:28:40;;;;;;;12.13;6.53;;;;;;;26.91;58.95;100252.56;4887030;28;122719;-78
2022/06/24 11:31:24;;;;;;;11.65;6.63;;;;;;;26.94;58.42;100247.88;4888540;28;126387;-78